Suncook, New Hampshire
Current Conditions -  °F | °C
As of 2:51 PM on Thursday 23 Oct 2014 (Local Time) from KCON Reporting Station
Overcast Overcast  
Wind Chill: 51°   Ceiling: 1700
Heat Index: 51°   Visibility: 10mi
Dew Point: 50°   Wind: 15mph
Humidity: 96%   Direction: 20°NNE
Pressure: 29.71"   Gusts: 29mph
Location:  43.12°N, 71.45°W
Report Text: KCON 231851Z AUTO 02013G25KT 10SM OVC017 11/10 A2971 RMK AO2 SLP062 T01060100
Loading
Personal Weather Stations






























Interactive Weather Map
Tropical Storm Tracking
New forecast layout! Learn more

10-Day Weather Forecast

Advertisements
Track Severe Weather on mobile